sensor_id;sensor_type;location;lat;lon;timestamp;temperature;humidity
11772;DHT22;12556;55.748;13.194;2023-05-10T00:02:00;9.30;87.50
11772;DHT22;12556;55.748;13.194;2023-05-10T00:04:27;9.30;87.50
11772;DHT22;12556;55.748;13.194;2023-05-10T00:06:54;9.30;87.60
11772;DHT22;12556;55.748;13.194;2023-05-10T00:09:21;9.30;87.70
11772;DHT22;12556;55.748;13.194;2023-05-10T00:11:48;9.20;87.80
11772;DHT22;12556;55.748;13.194;2023-05-10T00:14:15;9.20;87.80
11772;DHT22;12556;55.748;13.194;2023-05-10T00:16:44;9.20;87.90
11772;DHT22;12556;55.748;13.194;2023-05-10T00:19:11;9.20;88.00
11772;DHT22;12556;55.748;13.194;2023-05-10T00:21:37;9.10;88.00
11772;DHT22;12556;55.748;13.194;2023-05-10T00:24:05;9.10;88.10
11772;DHT22;12556;55.748;13.194;2023-05-10T00:26:32;9.10;88.20
11772;DHT22;12556;55.748;13.194;2023-05-10T00:28:59;9.10;88.30
11772;DHT22;12556;55.748;13.194;2023-05-10T00:31:26;9.10;88.30
11772;DHT22;12556;55.748;13.194;2023-05-10T00:33:54;9.10;88.30
11772;DHT22;12556;55.748;13.194;2023-05-10T00:36:21;9.10;88.40
11772;DHT22;12556;55.748;13.194;2023-05-10T00:38:48;9.20;88.40
11772;DHT22;12556;55.748;13.194;2023-05-10T00:41:15;9.20;88.30
11772;DHT22;12556;55.748;13.194;2023-05-10T00:43:42;9.30;88.30
11772;DHT22;12556;55.748;13.194;2023-05-10T00:46:09;9.30;88.00
11772;DHT22;12556;55.748;13.194;2023-05-10T00:48:36;9.30;87.90
11772;DHT22;12556;55.748;13.194;2023-05-10T00:51:05;9.50;87.70
11772;DHT22;12556;55.748;13.194;2023-05-10T00:53:32;9.50;87.40
11772;DHT22;12556;55.748;13.194;2023-05-10T00:56:01;9.70;87.10
11772;DHT22;12556;55.748;13.194;2023-05-10T00:58:28;9.80;86.80
11772;DHT22;12556;55.748;13.194;2023-05-10T01:00:56;9.90;86.50
11772;DHT22;12556;55.748;13.194;2023-05-10T01:03:24;10.00;85.00
11772;DHT22;12556;55.748;13.194;2023-05-10T01:05:51;10.10;84.60
11772;DHT22;12556;55.748;13.194;2023-05-10T01:08:20;10.30;84.30
11772;DHT22;12556;55.748;13.194;2023-05-10T01:10:47;10.40;84.00
11772;DHT22;12556;55.748;13.194;2023-05-10T01:13:23;10.40;83.70
11772;DHT22;12556;55.748;13.194;2023-05-10T01:15:55;10.50;83.50
11772;DHT22;12556;55.748;13.194;2023-05-10T01:18:23;10.60;83.40
11772;DHT22;12556;55.748;13.194;2023-05-10T01:21:07;10.60;83.20
11772;DHT22;12556;55.748;13.194;2023-05-10T01:26:53;10.70;82.70
11772;DHT22;12556;55.748;13.194;2023-05-10T01:32:28;10.70;82.40
11772;DHT22;12556;55.748;13.194;2023-05-10T01:35:00;10.70;82.30
11772;DHT22;12556;55.748;13.194;2023-05-10T01:37:43;10.90;82.40
11772;DHT22;12556;55.748;13.194;2023-05-10T01:40:17;10.70;82.10
11772;DHT22;12556;55.748;13.194;2023-05-10T01:42:49;10.70;82.60
11772;DHT22;12556;55.748;13.194;2023-05-10T01:45:22;10.80;82.00
11772;DHT22;12556;55.748;13.194;2023-05-10T01:47:58;10.80;81.80
11772;DHT22;12556;55.748;13.194;2023-05-10T01:50:29;10.80;81.70
11772;DHT22;12556;55.748;13.194;2023-05-10T01:52:58;10.80;81.60
11772;DHT22;12556;55.748;13.194;2023-05-10T01:55:28;10.80;81.50
11772;DHT22;12556;55.748;13.194;2023-05-10T01:58:02;10.80;81.40
11772;DHT22;12556;55.748;13.194;2023-05-10T02:00:30;10.80;81.30
11772;DHT22;12556;55.748;13.194;2023-05-10T02:03:00;10.80;81.30
11772;DHT22;12556;55.748;13.194;2023-05-10T02:05:31;10.90;81.30
11772;DHT22;12556;55.748;13.194;2023-05-10T02:07:59;10.90;81.30
11772;DHT22;12556;55.748;13.194;2023-05-10T02:10:28;10.90;81.30
11772;DHT22;12556;55.748;13.194;2023-05-10T02:12:58;10.80;81.20
11772;DHT22;12556;55.748;13.194;2023-05-10T02:15:26;10.80;81.10
11772;DHT22;12556;55.748;13.194;2023-05-10T02:17:55;10.80;81.10
11772;DHT22;12556;55.748;13.194;2023-05-10T02:20:25;10.80;81.10
11772;DHT22;12556;55.748;13.194;2023-05-10T02:22:54;10.80;81.10
11772;DHT22;12556;55.748;13.194;2023-05-10T02:25:23;10.80;81.20
11772;DHT22;12556;55.748;13.194;2023-05-10T02:27:53;10.80;81.20
11772;DHT22;12556;55.748;13.194;2023-05-10T02:30:20;10.80;81.30
11772;DHT22;12556;55.748;13.194;2023-05-10T02:32:49;10.80;81.30
11772;DHT22;12556;55.748;13.194;2023-05-10T02:35:16;10.70;81.20
11772;DHT22;12556;55.748;13.194;2023-05-10T02:37:46;10.70;81.30
11772;DHT22;12556;55.748;13.194;2023-05-10T02:40:14;10.70;81.30
11772;DHT22;12556;55.748;13.194;2023-05-10T02:42:43;10.70;81.20
11772;DHT22;12556;55.748;13.194;2023-05-10T02:45:13;10.80;81.30
11772;DHT22;12556;55.748;13.194;2023-05-10T02:47:41;10.70;81.10
11772;DHT22;12556;55.748;13.194;2023-05-10T02:50:09;10.70;81.10
11772;DHT22;12556;55.748;13.194;2023-05-10T02:52:39;10.80;81.20
11772;DHT22;12556;55.748;13.194;2023-05-10T02:55:11;10.80;81.10
11772;DHT22;12556;55.748;13.194;2023-05-10T02:57:43;10.80;81.00
11772;DHT22;12556;55.748;13.194;2023-05-10T03:00:12;10.80;80.90
11772;DHT22;12556;55.748;13.194;2023-05-10T03:02:39;10.80;80.90
11772;DHT22;12556;55.748;13.194;2023-05-10T03:05:06;10.80;81.50
11772;DHT22;12556;55.748;13.194;2023-05-10T03:07:34;10.90;80.90
11772;DHT22;12556;55.748;13.194;2023-05-10T03:10:01;10.90;80.90
11772;DHT22;12556;55.748;13.194;2023-05-10T03:12:38;10.90;80.90
11772;DHT22;12556;55.748;13.194;2023-05-10T03:15:13;10.80;80.80
11772;DHT22;12556;55.748;13.194;2023-05-10T03:17:52;10.90;80.90
11772;DHT22;12556;55.748;13.194;2023-05-10T03:20:24;10.80;80.90
11772;DHT22;12556;55.748;13.194;2023-05-10T03:22:55;10.80;80.90
11772;DHT22;12556;55.748;13.194;2023-05-10T03:25:23;10.80;81.00
11772;DHT22;12556;55.748;13.194;2023-05-10T03:27:52;10.80;81.10
11772;DHT22;12556;55.748;13.194;2023-05-10T03:30:19;10.80;81.20
11772;DHT22;12556;55.748;13.194;2023-05-10T03:32:46;10.80;81.20
11772;DHT22;12556;55.748;13.194;2023-05-10T03:35:14;10.80;81.30
11772;DHT22;12556;55.748;13.194;2023-05-10T03:37:41;10.80;81.30
11772;DHT22;12556;55.748;13.194;2023-05-10T03:40:08;10.80;81.40
11772;DHT22;12556;55.748;13.194;2023-05-10T03:42:35;10.80;81.50
11772;DHT22;12556;55.748;13.194;2023-05-10T03:45:04;10.80;81.60
11772;DHT22;12556;55.748;13.194;2023-05-10T03:47:31;10.80;81.60
11772;DHT22;12556;55.748;13.194;2023-05-10T03:49:58;10.80;82.30
11772;DHT22;12556;55.748;13.194;2023-05-10T03:52:25;10.80;81.70
11772;DHT22;12556;55.748;13.194;2023-05-10T03:54:52;10.80;81.70
11772;DHT22;12556;55.748;13.194;2023-05-10T03:57:19;10.80;81.80
11772;DHT22;12556;55.748;13.194;2023-05-10T03:59:46;10.80;81.80
11772;DHT22;12556;55.748;13.194;2023-05-10T04:02:14;10.80;81.80
11772;DHT22;12556;55.748;13.194;2023-05-10T04:04:41;10.90;81.90
11772;DHT22;12556;55.748;13.194;2023-05-10T04:07:08;10.90;81.90
11772;DHT22;12556;55.748;13.194;2023-05-10T04:09:35;11.30;82.30
11772;DHT22;12556;55.748;13.194;2023-05-10T04:12:03;10.90;81.90
11772;DHT22;12556;55.748;13.194;2023-05-10T04:14:30;11.00;82.10
11772;DHT22;12556;55.748;13.194;2023-05-10T04:16:57;11.00;82.10
11772;DHT22;12556;55.748;13.194;2023-05-10T04:19:29;11.00;82.20
11772;DHT22;12556;55.748;13.194;2023-05-10T04:21:56;11.00;82.50
11772;DHT22;12556;55.748;13.194;2023-05-10T04:24:23;11.00;82.70
11772;DHT22;12556;55.748;13.194;2023-05-10T04:26:50;11.10;82.90
11772;DHT22;12556;55.748;13.194;2023-05-10T04:29:17;11.00;83.00
11772;DHT22;12556;55.748;13.194;2023-05-10T04:31:44;11.00;82.80
11772;DHT22;12556;55.748;13.194;2023-05-10T04:34:11;11.10;82.70
11772;DHT22;12556;55.748;13.194;2023-05-10T04:36:39;11.20;82.70
11772;DHT22;12556;55.748;13.194;2023-05-10T04:39:07;11.20;82.60
11772;DHT22;12556;55.748;13.194;2023-05-10T04:41:35;11.30;82.60
11772;DHT22;12556;55.748;13.194;2023-05-10T04:44:02;11.50;82.70
11772;DHT22;12556;55.748;13.194;2023-05-10T04:46:29;11.50;82.40
11772;DHT22;12556;55.748;13.194;2023-05-10T04:48:56;11.60;82.40
11772;DHT22;12556;55.748;13.194;2023-05-10T04:51:23;11.60;82.20
11772;DHT22;12556;55.748;13.194;2023-05-10T04:53:51;11.90;82.30
11772;DHT22;12556;55.748;13.194;2023-05-10T04:56:18;11.80;82.00
11772;DHT22;12556;55.748;13.194;2023-05-10T04:58:45;11.90;81.90
11772;DHT22;12556;55.748;13.194;2023-05-10T05:01:12;12.00;81.60
11772;DHT22;12556;55.748;13.194;2023-05-10T05:03:39;12.10;81.60
11772;DHT22;12556;55.748;13.194;2023-05-10T05:06:06;12.20;81.70
11772;DHT22;12556;55.748;13.194;2023-05-10T05:08:33;12.30;81.60
11772;DHT22;12556;55.748;13.194;2023-05-10T05:11:02;12.40;81.50
11772;DHT22;12556;55.748;13.194;2023-05-10T05:13:29;12.50;81.30
11772;DHT22;12556;55.748;13.194;2023-05-10T05:15:56;12.60;81.10
11772;DHT22;12556;55.748;13.194;2023-05-10T05:18:23;12.60;80.90
11772;DHT22;12556;55.748;13.194;2023-05-10T05:20:50;12.70;80.70
11772;DHT22;12556;55.748;13.194;2023-05-10T05:23:17;12.80;80.40
11772;DHT22;12556;55.748;13.194;2023-05-10T05:25:46;12.90;80.30
11772;DHT22;12556;55.748;13.194;2023-05-10T05:28:14;13.00;80.40
11772;DHT22;12556;55.748;13.194;2023-05-10T05:30:41;13.10;80.40
11772;DHT22;12556;55.748;13.194;2023-05-10T05:33:08;13.20;80.40
11772;DHT22;12556;55.748;13.194;2023-05-10T05:35:35;13.20;79.90
11772;DHT22;12556;55.748;13.194;2023-05-10T05:38:02;13.30;79.70
11772;DHT22;12556;55.748;13.194;2023-05-10T05:40:29;13.40;79.60
11772;DHT22;12556;55.748;13.194;2023-05-10T05:42:56;13.50;80.00
11772;DHT22;12556;55.748;13.194;2023-05-10T05:45:24;13.60;79.50
11772;DHT22;12556;55.748;13.194;2023-05-10T05:47:51;13.70;79.40
11772;DHT22;12556;55.748;13.194;2023-05-10T05:50:18;13.80;79.10
11772;DHT22;12556;55.748;13.194;2023-05-10T05:52:45;13.80;78.80
11772;DHT22;12556;55.748;13.194;2023-05-10T05:55:12;13.90;78.70
11772;DHT22;12556;55.748;13.194;2023-05-10T05:57:39;13.90;78.30
11772;DHT22;12556;55.748;13.194;2023-05-10T06:00:07;14.00;78.40
11772;DHT22;12556;55.748;13.194;2023-05-10T06:02:35;14.10;78.70
11772;DHT22;12556;55.748;13.194;2023-05-10T06:05:02;14.20;78.80
11772;DHT22;12556;55.748;13.194;2023-05-10T06:07:29;14.20;78.20
11772;DHT22;12556;55.748;13.194;2023-05-10T06:09:56;14.30;78.10
11772;DHT22;12556;55.748;13.194;2023-05-10T06:12:23;14.40;78.20
11772;DHT22;12556;55.748;13.194;2023-05-10T06:14:50;14.40;77.80
11772;DHT22;12556;55.748;13.194;2023-05-10T06:17:17;14.50;77.70
11772;DHT22;12556;55.748;13.194;2023-05-10T06:19:46;14.60;77.40
11772;DHT22;12556;55.748;13.194;2023-05-10T06:22:13;14.60;77.30
11772;DHT22;12556;55.748;13.194;2023-05-10T06:24:40;14.70;77.00
11772;DHT22;12556;55.748;13.194;2023-05-10T06:27:07;14.80;77.10
11772;DHT22;12556;55.748;13.194;2023-05-10T06:29:34;14.80;76.70
11772;DHT22;12556;55.748;13.194;2023-05-10T06:32:00;14.90;76.50
11772;DHT22;12556;55.748;13.194;2023-05-10T06:34:27;15.00;76.40
11772;DHT22;12556;55.748;13.194;2023-05-10T06:36:56;15.00;76.20
11772;DHT22;12556;55.748;13.194;2023-05-10T06:39:23;15.20;75.80
11772;DHT22;12556;55.748;13.194;2023-05-10T06:41:50;15.20;75.70
11772;DHT22;12556;55.748;13.194;2023-05-10T06:44:17;15.30;76.00
11772;DHT22;12556;55.748;13.194;2023-05-10T06:46:44;15.40;76.00
11772;DHT22;12556;55.748;13.194;2023-05-10T06:49:11;15.50;75.70
11772;DHT22;12556;55.748;13.194;2023-05-10T06:51:38;15.60;75.40
11772;DHT22;12556;55.748;13.194;2023-05-10T06:54:07;15.80;75.30
11772;DHT22;12556;55.748;13.194;2023-05-10T06:56:33;15.90;75.80
11772;DHT22;12556;55.748;13.194;2023-05-10T06:59:00;16.00;74.70
11772;DHT22;12556;55.748;13.194;2023-05-10T07:01:28;16.10;74.20
11772;DHT22;12556;55.748;13.194;2023-05-10T07:03:55;16.10;74.20
11772;DHT22;12556;55.748;13.194;2023-05-10T07:06:22;16.20;74.40
11772;DHT22;12556;55.748;13.194;2023-05-10T07:08:49;16.30;74.10
11772;DHT22;12556;55.748;13.194;2023-05-10T07:11:17;16.40;73.80
11772;DHT22;12556;55.748;13.194;2023-05-10T07:13:44;16.50;73.80
11772;DHT22;12556;55.748;13.194;2023-05-10T07:16:12;16.70;73.30
11772;DHT22;12556;55.748;13.194;2023-05-10T07:18:39;16.70;73.10
11772;DHT22;12556;55.748;13.194;2023-05-10T07:21:06;16.90;73.10
11772;DHT22;12556;55.748;13.194;2023-05-10T07:23:33;16.90;72.60
11772;DHT22;12556;55.748;13.194;2023-05-10T07:26:00;17.00;72.30
11772;DHT22;12556;55.748;13.194;2023-05-10T07:28:29;17.00;72.30
11772;DHT22;12556;55.748;13.194;2023-05-10T07:30:56;17.10;72.00
11772;DHT22;12556;55.748;13.194;2023-05-10T07:33:23;17.20;72.20
11772;DHT22;12556;55.748;13.194;2023-05-10T07:35:50;17.40;72.00
11772;DHT22;12556;55.748;13.194;2023-05-10T07:38:17;17.50;72.10
11772;DHT22;12556;55.748;13.194;2023-05-10T07:40:44;17.60;72.10
11772;DHT22;12556;55.748;13.194;2023-05-10T07:43:11;17.70;71.80
11772;DHT22;12556;55.748;13.194;2023-05-10T07:45:40;17.80;71.10
11772;DHT22;12556;55.748;13.194;2023-05-10T07:48:07;17.90;71.20
11772;DHT22;12556;55.748;13.194;2023-05-10T07:50:34;18.00;70.80
11772;DHT22;12556;55.748;13.194;2023-05-10T07:53:01;18.10;70.80
11772;DHT22;12556;55.748;13.194;2023-05-10T07:55:28;18.20;70.80
11772;DHT22;12556;55.748;13.194;2023-05-10T07:57:54;18.40;70.20
11772;DHT22;12556;55.748;13.194;2023-05-10T08:00:21;18.50;70.10
11772;DHT22;12556;55.748;13.194;2023-05-10T08:02:50;18.50;69.50
11772;DHT22;12556;55.748;13.194;2023-05-10T08:05:17;18.50;69.30
11772;DHT22;12556;55.748;13.194;2023-05-10T08:07:44;18.50;69.10
11772;DHT22;12556;55.748;13.194;2023-05-10T08:10:11;18.50;68.90
11772;DHT22;12556;55.748;13.194;2023-05-10T08:12:38;18.50;69.10
11772;DHT22;12556;55.748;13.194;2023-05-10T08:15:06;18.60;68.90
11772;DHT22;12556;55.748;13.194;2023-05-10T08:17:33;18.60;69.10
11772;DHT22;12556;55.748;13.194;2023-05-10T08:20:01;18.60;68.80
11772;DHT22;12556;55.748;13.194;2023-05-10T08:22:28;18.80;68.90
11772;DHT22;12556;55.748;13.194;2023-05-10T08:24:55;18.90;68.70
11772;DHT22;12556;55.748;13.194;2023-05-10T08:27:22;19.00;68.50
11772;DHT22;12556;55.748;13.194;2023-05-10T08:29:49;19.00;67.90
11772;DHT22;12556;55.748;13.194;2023-05-10T08:32:16;19.00;68.30
11772;DHT22;12556;55.748;13.194;2023-05-10T08:34:43;19.30;68.60
11772;DHT22;12556;55.748;13.194;2023-05-10T08:37:11;19.40;68.10
11772;DHT22;12556;55.748;13.194;2023-05-10T08:39:38;19.50;67.70
11772;DHT22;12556;55.748;13.194;2023-05-10T08:42:06;19.60;67.40
11772;DHT22;12556;55.748;13.194;2023-05-10T08:44:35;19.70;67.70
11772;DHT22;12556;55.748;13.194;2023-05-10T08:47:05;19.80;67.40
11772;DHT22;12556;55.748;13.194;2023-05-10T08:49:32;19.90;66.80
11772;DHT22;12556;55.748;13.194;2023-05-10T08:52:03;20.00;66.80
11772;DHT22;12556;55.748;13.194;2023-05-10T08:54:33;20.00;66.70
11772;DHT22;12556;55.748;13.194;2023-05-10T08:57:00;20.00;65.30
11772;DHT22;12556;55.748;13.194;2023-05-10T08:59:28;20.00;65.50
11772;DHT22;12556;55.748;13.194;2023-05-10T09:01:57;20.00;65.60
11772;DHT22;12556;55.748;13.194;2023-05-10T09:04:25;20.00;64.70
11772;DHT22;12556;55.748;13.194;2023-05-10T09:06:52;20.10;65.00
11772;DHT22;12556;55.748;13.194;2023-05-10T09:09:20;20.20;64.60
11772;DHT22;12556;55.748;13.194;2023-05-10T09:11:49;20.30;64.30
11772;DHT22;12556;55.748;13.194;2023-05-10T09:14:16;20.30;63.50
11772;DHT22;12556;55.748;13.194;2023-05-10T09:16:44;20.40;63.20
11772;DHT22;12556;55.748;13.194;2023-05-10T09:19:11;20.50;62.90
11772;DHT22;12556;55.748;13.194;2023-05-10T09:21:38;20.60;63.30
11772;DHT22;12556;55.748;13.194;2023-05-10T09:24:06;20.70;61.60
11772;DHT22;12556;55.748;13.194;2023-05-10T09:26:34;20.60;60.90
11772;DHT22;12556;55.748;13.194;2023-05-10T09:29:03;20.70;60.50
11772;DHT22;12556;55.748;13.194;2023-05-10T09:31:48;20.70;61.00
11772;DHT22;12556;55.748;13.194;2023-05-10T09:34:17;20.70;60.00
11772;DHT22;12556;55.748;13.194;2023-05-10T09:36:51;20.80;60.40
11772;DHT22;12556;55.748;13.194;2023-05-10T09:39:19;20.90;60.60
11772;DHT22;12556;55.748;13.194;2023-05-10T09:41:47;20.90;59.90
11772;DHT22;12556;55.748;13.194;2023-05-10T09:44:18;21.00;59.20
11772;DHT22;12556;55.748;13.194;2023-05-10T09:46:49;21.00;59.10
11772;DHT22;12556;55.748;13.194;2023-05-10T09:49:18;21.00;58.80
11772;DHT22;12556;55.748;13.194;2023-05-10T09:51:45;21.00;58.80
11772;DHT22;12556;55.748;13.194;2023-05-10T09:54:13;21.10;58.60
11772;DHT22;12556;55.748;13.194;2023-05-10T09:56:41;21.20;58.40
11772;DHT22;12556;55.748;13.194;2023-05-10T09:59:10;21.30;58.40
11772;DHT22;12556;55.748;13.194;2023-05-10T10:01:39;21.40;58.20
11772;DHT22;12556;55.748;13.194;2023-05-10T10:04:08;21.60;58.50
11772;DHT22;12556;55.748;13.194;2023-05-10T10:06:36;21.70;58.30
11772;DHT22;12556;55.748;13.194;2023-05-10T10:09:04;21.80;58.20
11772;DHT22;12556;55.748;13.194;2023-05-10T10:11:34;21.90;57.60
11772;DHT22;12556;55.748;13.194;2023-05-10T10:14:01;21.90;57.30
11772;DHT22;12556;55.748;13.194;2023-05-10T10:16:29;22.00;57.10
11772;DHT22;12556;55.748;13.194;2023-05-10T10:18:58;22.20;57.00
11772;DHT22;12556;55.748;13.194;2023-05-10T10:21:25;22.20;56.50
11772;DHT22;12556;55.748;13.194;2023-05-10T10:23:52;22.20;56.40
11772;DHT22;12556;55.748;13.194;2023-05-10T10:26:21;22.20;56.60
11772;DHT22;12556;55.748;13.194;2023-05-10T10:28:54;22.20;56.50
11772;DHT22;12556;55.748;13.194;2023-05-10T10:31:27;22.30;55.90
11772;DHT22;12556;55.748;13.194;2023-05-10T10:34:05;22.20;55.40
11772;DHT22;12556;55.748;13.194;2023-05-10T10:36:33;22.20;55.10
11772;DHT22;12556;55.748;13.194;2023-05-10T10:39:09;22.30;55.40
11772;DHT22;12556;55.748;13.194;2023-05-10T10:41:38;22.50;55.20
11772;DHT22;12556;55.748;13.194;2023-05-10T10:44:35;22.60;54.70
11772;DHT22;12556;55.748;13.194;2023-05-10T10:47:22;22.60;54.90
11772;DHT22;12556;55.748;13.194;2023-05-10T10:50:06;22.80;55.00
11772;DHT22;12556;55.748;13.194;2023-05-10T10:52:34;22.70;54.40
11772;DHT22;12556;55.748;13.194;2023-05-10T10:55:03;22.70;54.80
11772;DHT22;12556;55.748;13.194;2023-05-10T10:57:33;22.70;54.80
11772;DHT22;12556;55.748;13.194;2023-05-10T11:00:20;22.70;54.30
11772;DHT22;12556;55.748;13.194;2023-05-10T11:02:49;22.80;54.60
11772;DHT22;12556;55.748;13.194;2023-05-10T11:05:45;22.80;54.40
11772;DHT22;12556;55.748;13.194;2023-05-10T11:08:18;22.80;54.10
11772;DHT22;12556;55.748;13.194;2023-05-10T11:11:04;22.80;54.30
11772;DHT22;12556;55.748;13.194;2023-05-10T11:13:34;22.90;53.90
11772;DHT22;12556;55.748;13.194;2023-05-10T11:16:16;23.10;53.80
11772;DHT22;12556;55.748;13.194;2023-05-10T11:18:56;23.10;53.50
11772;DHT22;12556;55.748;13.194;2023-05-10T11:21:25;22.90;52.90
11772;DHT22;12556;55.748;13.194;2023-05-10T11:23:53;22.80;53.70
11772;DHT22;12556;55.748;13.194;2023-05-10T11:26:23;22.80;53.10
11772;DHT22;12556;55.748;13.194;2023-05-10T11:28:52;22.90;52.30
11772;DHT22;12556;55.748;13.194;2023-05-10T11:31:21;23.10;53.00
11772;DHT22;12556;55.748;13.194;2023-05-10T11:33:50;23.20;52.50
11772;DHT22;12556;55.748;13.194;2023-05-10T11:36:19;23.20;51.90
11772;DHT22;12556;55.748;13.194;2023-05-10T11:38:48;23.10;51.80
11772;DHT22;12556;55.748;13.194;2023-05-10T11:41:18;23.10;52.00
11772;DHT22;12556;55.748;13.194;2023-05-10T11:43:49;23.20;52.00
11772;DHT22;12556;55.748;13.194;2023-05-10T11:46:19;23.30;52.50
11772;DHT22;12556;55.748;13.194;2023-05-10T11:48:47;23.50;52.40
11772;DHT22;12556;55.748;13.194;2023-05-10T11:51:19;23.80;52.00
11772;DHT22;12556;55.748;13.194;2023-05-10T11:53:48;23.90;52.10
11772;DHT22;12556;55.748;13.194;2023-05-10T11:56:16;23.80;51.70
11772;DHT22;12556;55.748;13.194;2023-05-10T11:58:43;23.80;51.40
11772;DHT22;12556;55.748;13.194;2023-05-10T12:01:10;23.80;51.00
11772;DHT22;12556;55.748;13.194;2023-05-10T12:03:38;23.70;52.20
11772;DHT22;12556;55.748;13.194;2023-05-10T12:06:07;23.80;50.70
11772;DHT22;12556;55.748;13.194;2023-05-10T12:08:34;23.80;50.70
11772;DHT22;12556;55.748;13.194;2023-05-10T12:11:06;23.90;50.70
11772;DHT22;12556;55.748;13.194;2023-05-10T12:13:38;24.00;50.90
11772;DHT22;12556;55.748;13.194;2023-05-10T12:16:16;24.10;51.60
11772;DHT22;12556;55.748;13.194;2023-05-10T12:18:43;24.10;50.70
11772;DHT22;12556;55.748;13.194;2023-05-10T12:21:11;24.10;51.00
11772;DHT22;12556;55.748;13.194;2023-05-10T12:23:38;24.00;50.60
11772;DHT22;12556;55.748;13.194;2023-05-10T12:26:08;23.80;50.80
11772;DHT22;12556;55.748;13.194;2023-05-10T12:28:35;23.80;51.00
11772;DHT22;12556;55.748;13.194;2023-05-10T12:31:02;23.80;51.20
11772;DHT22;12556;55.748;13.194;2023-05-10T12:33:36;23.90;51.10
11772;DHT22;12556;55.748;13.194;2023-05-10T12:36:05;24.10;51.00
11772;DHT22;12556;55.748;13.194;2023-05-10T12:38:34;24.10;50.80
11772;DHT22;12556;55.748;13.194;2023-05-10T12:41:05;24.10;50.80
11772;DHT22;12556;55.748;13.194;2023-05-10T12:43:33;24.10;50.80
11772;DHT22;12556;55.748;13.194;2023-05-10T12:46:05;23.90;50.40
11772;DHT22;12556;55.748;13.194;2023-05-10T12:48:32;23.90;50.80
11772;DHT22;12556;55.748;13.194;2023-05-10T12:51:00;24.10;50.50
11772;DHT22;12556;55.748;13.194;2023-05-10T12:53:27;24.10;50.00
11772;DHT22;12556;55.748;13.194;2023-05-10T12:55:54;24.10;49.70
11772;DHT22;12556;55.748;13.194;2023-05-10T12:58:23;24.20;50.10
11772;DHT22;12556;55.748;13.194;2023-05-10T13:00:50;24.20;49.70
11772;DHT22;12556;55.748;13.194;2023-05-10T13:03:18;24.10;50.30
11772;DHT22;12556;55.748;13.194;2023-05-10T13:05:45;24.10;49.40
11772;DHT22;12556;55.748;13.194;2023-05-10T13:08:12;24.10;49.70
11772;DHT22;12556;55.748;13.194;2023-05-10T13:10:39;24.20;49.70
11772;DHT22;12556;55.748;13.194;2023-05-10T13:13:06;24.20;49.60
11772;DHT22;12556;55.748;13.194;2023-05-10T13:15:35;24.20;49.90
11772;DHT22;12556;55.748;13.194;2023-05-10T13:18:02;24.40;49.80
11772;DHT22;12556;55.748;13.194;2023-05-10T13:20:29;24.30;49.60
11772;DHT22;12556;55.748;13.194;2023-05-10T13:22:56;24.40;50.00
11772;DHT22;12556;55.748;13.194;2023-05-10T13:25:24;24.40;49.90
11772;DHT22;12556;55.748;13.194;2023-05-10T13:27:51;24.50;49.80
11772;DHT22;12556;55.748;13.194;2023-05-10T13:30:18;24.50;49.40
11772;DHT22;12556;55.748;13.194;2023-05-10T13:32:47;24.30;49.60
11772;DHT22;12556;55.748;13.194;2023-05-10T13:35:14;24.20;49.70
11772;DHT22;12556;55.748;13.194;2023-05-10T13:37:41;24.20;49.90
11772;DHT22;12556;55.748;13.194;2023-05-10T13:40:08;24.30;50.10
11772;DHT22;12556;55.748;13.194;2023-05-10T13:42:35;24.30;49.90
11772;DHT22;12556;55.748;13.194;2023-05-10T13:45:03;24.10;49.70
11772;DHT22;12556;55.748;13.194;2023-05-10T13:47:30;23.90;49.70
11772;DHT22;12556;55.748;13.194;2023-05-10T13:49:59;23.80;49.90
11772;DHT22;12556;55.748;13.194;2023-05-10T13:52:26;23.80;50.00
11772;DHT22;12556;55.748;13.194;2023-05-10T13:54:53;23.70;49.90
11772;DHT22;12556;55.748;13.194;2023-05-10T13:57:21;23.60;49.70
11772;DHT22;12556;55.748;13.194;2023-05-10T13:59:49;23.60;50.00
11772;DHT22;12556;55.748;13.194;2023-05-10T14:02:16;23.60;49.90
11772;DHT22;12556;55.748;13.194;2023-05-10T14:04:43;23.60;50.10
11772;DHT22;12556;55.748;13.194;2023-05-10T14:07:11;23.40;50.20
11772;DHT22;12556;55.748;13.194;2023-05-10T14:09:38;23.30;50.20
11772;DHT22;12556;55.748;13.194;2023-05-10T14:12:05;23.10;49.90
11772;DHT22;12556;55.748;13.194;2023-05-10T14:14:32;23.00;50.00
11772;DHT22;12556;55.748;13.194;2023-05-10T14:16:59;22.90;50.20
11772;DHT22;12556;55.748;13.194;2023-05-10T14:19:26;22.90;50.60
11772;DHT22;12556;55.748;13.194;2023-05-10T14:21:56;22.90;50.50
11772;DHT22;12556;55.748;13.194;2023-05-10T14:24:24;22.80;50.40
11772;DHT22;12556;55.748;13.194;2023-05-10T14:26:51;22.80;50.40
11772;DHT22;12556;55.748;13.194;2023-05-10T14:29:19;22.90;50.40
11772;DHT22;12556;55.748;13.194;2023-05-10T14:31:46;22.90;50.30
11772;DHT22;12556;55.748;13.194;2023-05-10T14:34:13;22.90;50.50
11772;DHT22;12556;55.748;13.194;2023-05-10T14:36:40;22.90;50.90
11772;DHT22;12556;55.748;13.194;2023-05-10T14:39:07;23.00;51.10
11772;DHT22;12556;55.748;13.194;2023-05-10T14:41:37;23.10;50.30
11772;DHT22;12556;55.748;13.194;2023-05-10T14:44:06;23.00;50.10
11772;DHT22;12556;55.748;13.194;2023-05-10T14:46:33;23.00;50.30
11772;DHT22;12556;55.748;13.194;2023-05-10T14:49:00;23.10;50.20
11772;DHT22;12556;55.748;13.194;2023-05-10T14:51:27;22.90;50.00
11772;DHT22;12556;55.748;13.194;2023-05-10T14:53:54;22.80;50.30
11772;DHT22;12556;55.748;13.194;2023-05-10T14:56:22;22.70;50.40
11772;DHT22;12556;55.748;13.194;2023-05-10T14:58:50;22.60;50.70
11772;DHT22;12556;55.748;13.194;2023-05-10T15:01:17;22.60;51.00
11772;DHT22;12556;55.748;13.194;2023-05-10T15:03:44;22.50;51.10
11772;DHT22;12556;55.748;13.194;2023-05-10T15:06:14;22.50;51.50
11772;DHT22;12556;55.748;13.194;2023-05-10T15:08:41;22.50;51.60
11772;DHT22;12556;55.748;13.194;2023-05-10T15:11:08;22.30;51.80
11772;DHT22;12556;55.748;13.194;2023-05-10T15:13:36;22.20;51.80
11772;DHT22;12556;55.748;13.194;2023-05-10T15:16:04;22.10;52.10
11772;DHT22;12556;55.748;13.194;2023-05-10T15:18:31;22.00;52.10
11772;DHT22;12556;55.748;13.194;2023-05-10T15:20:58;21.90;52.30
11772;DHT22;12556;55.748;13.194;2023-05-10T15:23:25;21.80;52.30
11772;DHT22;12556;55.748;13.194;2023-05-10T15:25:52;21.80;52.70
11772;DHT22;12556;55.748;13.194;2023-05-10T15:28:21;21.70;52.70
11772;DHT22;12556;55.748;13.194;2023-05-10T15:30:48;21.70;52.80
11772;DHT22;12556;55.748;13.194;2023-05-10T15:33:16;21.70;53.00